sensor_id;sensor_type;location;lat;lon;timestamp;temperature;humidity
12682;DHT22;6405;59.208;18.216;2022-08-21T00:02:23;18.00;99.90
12682;DHT22;6405;59.208;18.216;2022-08-21T00:04:53;18.00;99.90
12682;DHT22;6405;59.208;18.216;2022-08-21T00:07:20;18.00;99.90
12682;DHT22;6405;59.208;18.216;2022-08-21T00:09:47;17.90;99.90
12682;DHT22;6405;59.208;18.216;2022-08-21T00:12:14;17.90;99.90
12682;DHT22;6405;59.208;18.216;2022-08-21T00:14:40;17.90;99.90
12682;DHT22;6405;59.208;18.216;2022-08-21T00:17:07;17.90;99.90
12682;DHT22;6405;59.208;18.216;2022-08-21T00:19:33;17.90;99.90
12682;DHT22;6405;59.208;18.216;2022-08-21T00:21:59;17.80;99.90
12682;DHT22;6405;59.208;18.216;2022-08-21T00:24:27;17.80;99.90
12682;DHT22;6405;59.208;18.216;2022-08-21T00:26:55;17.80;99.90
12682;DHT22;6405;59.208;18.216;2022-08-21T00:29:21;17.80;99.90
12682;DHT22;6405;59.208;18.216;2022-08-21T00:31:47;17.80;99.90
12682;DHT22;6405;59.208;18.216;2022-08-21T00:34:14;17.70;99.90
12682;DHT22;6405;59.208;18.216;2022-08-21T00:36:42;17.70;99.90
12682;DHT22;6405;59.208;18.216;2022-08-21T00:39:09;17.60;99.90
12682;DHT22;6405;59.208;18.216;2022-08-21T00:41:38;17.60;99.90
12682;DHT22;6405;59.208;18.216;2022-08-21T00:44:08;17.60;99.90
12682;DHT22;6405;59.208;18.216;2022-08-21T00:46:36;17.60;99.90
12682;DHT22;6405;59.208;18.216;2022-08-21T00:49:04;17.60;99.90
12682;DHT22;6405;59.208;18.216;2022-08-21T00:51:37;17.60;99.90
12682;DHT22;6405;59.208;18.216;2022-08-21T00:54:05;17.60;99.90
12682;DHT22;6405;59.208;18.216;2022-08-21T00:56:32;17.60;99.90
12682;DHT22;6405;59.208;18.216;2022-08-21T00:58:59;17.60;99.90
12682;DHT22;6405;59.208;18.216;2022-08-21T01:01:25;17.70;99.90
12682;DHT22;6405;59.208;18.216;2022-08-21T01:03:53;17.60;99.90
12682;DHT22;6405;59.208;18.216;2022-08-21T01:06:21;17.60;99.90
12682;DHT22;6405;59.208;18.216;2022-08-21T01:08:48;17.60;99.90
12682;DHT22;6405;59.208;18.216;2022-08-21T01:11:15;17.60;99.90
12682;DHT22;6405;59.208;18.216;2022-08-21T01:13:43;17.60;99.90
12682;DHT22;6405;59.208;18.216;2022-08-21T01:16:15;17.50;99.90
12682;DHT22;6405;59.208;18.216;2022-08-21T01:18:43;17.50;99.90
12682;DHT22;6405;59.208;18.216;2022-08-21T01:21:12;17.50;99.90
12682;DHT22;6405;59.208;18.216;2022-08-21T01:23:43;17.50;99.90
12682;DHT22;6405;59.208;18.216;2022-08-21T01:26:11;17.50;99.90
12682;DHT22;6405;59.208;18.216;2022-08-21T01:28:43;17.40;99.90
12682;DHT22;6405;59.208;18.216;2022-08-21T01:31:12;17.50;99.90
12682;DHT22;6405;59.208;18.216;2022-08-21T01:33:40;17.50;99.90
12682;DHT22;6405;59.208;18.216;2022-08-21T01:36:06;17.40;99.90
12682;DHT22;6405;59.208;18.216;2022-08-21T01:38:33;17.40;99.90
12682;DHT22;6405;59.208;18.216;2022-08-21T01:41:00;17.40;99.90
12682;DHT22;6405;59.208;18.216;2022-08-21T01:43:27;17.40;99.90
12682;DHT22;6405;59.208;18.216;2022-08-21T01:45:53;17.40;99.90
12682;DHT22;6405;59.208;18.216;2022-08-21T01:48:19;17.40;99.90
12682;DHT22;6405;59.208;18.216;2022-08-21T01:50:45;17.40;99.90
12682;DHT22;6405;59.208;18.216;2022-08-21T01:53:12;17.40;99.90
12682;DHT22;6405;59.208;18.216;2022-08-21T01:55:43;17.40;99.90
12682;DHT22;6405;59.208;18.216;2022-08-21T01:58:09;17.40;99.90
12682;DHT22;6405;59.208;18.216;2022-08-21T02:00:35;17.40;99.90
12682;DHT22;6405;59.208;18.216;2022-08-21T02:03:03;17.40;99.90
12682;DHT22;6405;59.208;18.216;2022-08-21T02:05:29;17.30;99.90
12682;DHT22;6405;59.208;18.216;2022-08-21T02:07:57;17.30;99.90
12682;DHT22;6405;59.208;18.216;2022-08-21T02:10:28;17.30;99.90
12682;DHT22;6405;59.208;18.216;2022-08-21T02:12:57;17.30;99.90
12682;DHT22;6405;59.208;18.216;2022-08-21T02:15:27;17.20;99.90
12682;DHT22;6405;59.208;18.216;2022-08-21T02:17:57;17.20;99.90
12682;DHT22;6405;59.208;18.216;2022-08-21T02:20:30;17.20;99.90
12682;DHT22;6405;59.208;18.216;2022-08-21T02:22:57;17.10;99.90
12682;DHT22;6405;59.208;18.216;2022-08-21T02:25:27;17.00;99.90
12682;DHT22;6405;59.208;18.216;2022-08-21T02:27:55;17.00;99.90
12682;DHT22;6405;59.208;18.216;2022-08-21T02:30:32;16.90;99.90
12682;DHT22;6405;59.208;18.216;2022-08-21T02:33:00;16.80;99.90
12682;DHT22;6405;59.208;18.216;2022-08-21T02:35:28;16.70;99.90
12682;DHT22;6405;59.208;18.216;2022-08-21T02:37:59;16.70;99.90
12682;DHT22;6405;59.208;18.216;2022-08-21T02:40:29;16.60;99.90
12682;DHT22;6405;59.208;18.216;2022-08-21T02:43:01;16.60;99.90
12682;DHT22;6405;59.208;18.216;2022-08-21T02:45:28;16.50;99.90
12682;DHT22;6405;59.208;18.216;2022-08-21T02:48:03;16.40;99.90
12682;DHT22;6405;59.208;18.216;2022-08-21T02:50:34;16.40;99.90
12682;DHT22;6405;59.208;18.216;2022-08-21T02:53:01;16.40;99.90
12682;DHT22;6405;59.208;18.216;2022-08-21T02:55:29;16.40;99.90
12682;DHT22;6405;59.208;18.216;2022-08-21T02:57:57;16.30;99.90
12682;DHT22;6405;59.208;18.216;2022-08-21T03:00:26;16.30;99.90
12682;DHT22;6405;59.208;18.216;2022-08-21T03:02:54;16.30;99.90
12682;DHT22;6405;59.208;18.216;2022-08-21T03:05:24;16.20;99.90
12682;DHT22;6405;59.208;18.216;2022-08-21T03:07:52;16.20;99.90
12682;DHT22;6405;59.208;18.216;2022-08-21T03:10:20;16.20;99.90
12682;DHT22;6405;59.208;18.216;2022-08-21T03:12:47;16.20;99.90
12682;DHT22;6405;59.208;18.216;2022-08-21T03:15:15;16.20;99.90
12682;DHT22;6405;59.208;18.216;2022-08-21T03:17:44;16.20;99.90
12682;DHT22;6405;59.208;18.216;2022-08-21T03:20:11;16.20;99.90
12682;DHT22;6405;59.208;18.216;2022-08-21T03:22:39;16.20;99.90
12682;DHT22;6405;59.208;18.216;2022-08-21T03:25:06;16.20;99.90
12682;DHT22;6405;59.208;18.216;2022-08-21T03:27:33;16.20;99.90
12682;DHT22;6405;59.208;18.216;2022-08-21T03:30:02;16.20;99.90
12682;DHT22;6405;59.208;18.216;2022-08-21T03:32:28;16.20;99.90
12682;DHT22;6405;59.208;18.216;2022-08-21T03:34:55;16.20;99.90
12682;DHT22;6405;59.208;18.216;2022-08-21T03:37:22;16.20;99.90
12682;DHT22;6405;59.208;18.216;2022-08-21T03:39:47;16.20;99.90
12682;DHT22;6405;59.208;18.216;2022-08-21T03:42:14;16.20;99.90
12682;DHT22;6405;59.208;18.216;2022-08-21T03:44:40;16.20;99.90
12682;DHT22;6405;59.208;18.216;2022-08-21T03:47:07;16.10;99.90
12682;DHT22;6405;59.208;18.216;2022-08-21T03:49:35;16.10;99.90
12682;DHT22;6405;59.208;18.216;2022-08-21T03:52:02;16.10;99.90
12682;DHT22;6405;59.208;18.216;2022-08-21T03:54:29;16.00;99.90
12682;DHT22;6405;59.208;18.216;2022-08-21T03:56:57;15.90;99.90
12682;DHT22;6405;59.208;18.216;2022-08-21T03:59:24;15.90;99.90
12682;DHT22;6405;59.208;18.216;2022-08-21T04:01:56;15.90;99.90
12682;DHT22;6405;59.208;18.216;2022-08-21T04:04:24;15.80;99.90
12682;DHT22;6405;59.208;18.216;2022-08-21T04:06:52;15.80;99.90
12682;DHT22;6405;59.208;18.216;2022-08-21T04:09:19;15.80;99.90
12682;DHT22;6405;59.208;18.216;2022-08-21T04:11:46;15.80;99.90
12682;DHT22;6405;59.208;18.216;2022-08-21T04:14:14;15.80;99.90
12682;DHT22;6405;59.208;18.216;2022-08-21T04:16:41;15.70;99.90
12682;DHT22;6405;59.208;18.216;2022-08-21T04:19:11;15.70;99.90
12682;DHT22;6405;59.208;18.216;2022-08-21T04:21:38;15.70;99.90
12682;DHT22;6405;59.208;18.216;2022-08-21T04:24:07;15.60;99.90
12682;DHT22;6405;59.208;18.216;2022-08-21T04:26:37;15.70;99.90
12682;DHT22;6405;59.208;18.216;2022-08-21T04:29:04;15.70;99.90
12682;DHT22;6405;59.208;18.216;2022-08-21T04:31:33;15.70;99.90
12682;DHT22;6405;59.208;18.216;2022-08-21T04:34:00;15.70;99.90
12682;DHT22;6405;59.208;18.216;2022-08-21T04:36:27;15.70;99.90
12682;DHT22;6405;59.208;18.216;2022-08-21T04:38:54;15.70;99.90
12682;DHT22;6405;59.208;18.216;2022-08-21T04:41:21;15.70;99.90
12682;DHT22;6405;59.208;18.216;2022-08-21T04:43:47;15.70;99.90
12682;DHT22;6405;59.208;18.216;2022-08-21T04:46:13;15.80;99.90
12682;DHT22;6405;59.208;18.216;2022-08-21T04:48:40;15.80;99.90
12682;DHT22;6405;59.208;18.216;2022-08-21T04:51:19;15.80;99.90
12682;DHT22;6405;59.208;18.216;2022-08-21T04:53:55;15.80;99.90
12682;DHT22;6405;59.208;18.216;2022-08-21T04:56:24;15.80;99.90
12682;DHT22;6405;59.208;18.216;2022-08-21T04:58:54;15.90;99.90
12682;DHT22;6405;59.208;18.216;2022-08-21T05:01:26;15.90;99.90
12682;DHT22;6405;59.208;18.216;2022-08-21T05:03:56;15.90;99.90
12682;DHT22;6405;59.208;18.216;2022-08-21T05:06:24;16.00;99.90
12682;DHT22;6405;59.208;18.216;2022-08-21T05:08:55;16.00;99.90
12682;DHT22;6405;59.208;18.216;2022-08-21T05:11:22;16.10;99.90
12682;DHT22;6405;59.208;18.216;2022-08-21T05:13:49;16.10;99.90
12682;DHT22;6405;59.208;18.216;2022-08-21T05:16:16;16.10;99.90
12682;DHT22;6405;59.208;18.216;2022-08-21T05:18:43;16.10;99.90
12682;DHT22;6405;59.208;18.216;2022-08-21T05:21:10;16.20;99.90
12682;DHT22;6405;59.208;18.216;2022-08-21T05:23:37;16.20;99.90
12682;DHT22;6405;59.208;18.216;2022-08-21T05:26:03;16.20;99.90
12682;DHT22;6405;59.208;18.216;2022-08-21T05:28:32;16.20;99.90
12682;DHT22;6405;59.208;18.216;2022-08-21T05:30:58;16.30;99.90
12682;DHT22;6405;59.208;18.216;2022-08-21T05:33:25;16.30;99.90
12682;DHT22;6405;59.208;18.216;2022-08-21T05:35:53;16.30;99.90
12682;DHT22;6405;59.208;18.216;2022-08-21T05:38:25;16.30;99.90
12682;DHT22;6405;59.208;18.216;2022-08-21T05:40:54;16.30;99.90
12682;DHT22;6405;59.208;18.216;2022-08-21T05:43:20;16.30;99.90
12682;DHT22;6405;59.208;18.216;2022-08-21T05:45:48;16.30;99.90
12682;DHT22;6405;59.208;18.216;2022-08-21T05:48:17;16.30;99.90
12682;DHT22;6405;59.208;18.216;2022-08-21T05:50:46;16.50;99.90
12682;DHT22;6405;59.208;18.216;2022-08-21T05:53:15;16.60;99.90
12682;DHT22;6405;59.208;18.216;2022-08-21T05:55:44;16.60;99.90
12682;DHT22;6405;59.208;18.216;2022-08-21T05:58:12;16.60;99.90
12682;DHT22;6405;59.208;18.216;2022-08-21T06:00:39;16.70;99.90
12682;DHT22;6405;59.208;18.216;2022-08-21T06:03:14;16.70;99.90
12682;DHT22;6405;59.208;18.216;2022-08-21T06:05:43;16.70;99.90
12682;DHT22;6405;59.208;18.216;2022-08-21T06:08:09;16.80;99.90
12682;DHT22;6405;59.208;18.216;2022-08-21T06:10:36;16.80;99.90
12682;DHT22;6405;59.208;18.216;2022-08-21T06:13:03;16.90;99.90
12682;DHT22;6405;59.208;18.216;2022-08-21T06:15:31;16.90;99.90
12682;DHT22;6405;59.208;18.216;2022-08-21T06:17:57;16.90;99.90
12682;DHT22;6405;59.208;18.216;2022-08-21T06:20:23;16.90;99.90
12682;DHT22;6405;59.208;18.216;2022-08-21T06:22:50;16.90;99.90
12682;DHT22;6405;59.208;18.216;2022-08-21T06:25:16;16.90;99.90
12682;DHT22;6405;59.208;18.216;2022-08-21T06:27:42;16.90;99.90
12682;DHT22;6405;59.208;18.216;2022-08-21T06:30:10;16.90;99.90
12682;DHT22;6405;59.208;18.216;2022-08-21T06:32:37;16.90;99.90
12682;DHT22;6405;59.208;18.216;2022-08-21T06:35:06;16.90;99.90
12682;DHT22;6405;59.208;18.216;2022-08-21T06:37:33;17.00;99.90
12682;DHT22;6405;59.208;18.216;2022-08-21T06:40:00;17.00;99.90
12682;DHT22;6405;59.208;18.216;2022-08-21T06:42:27;17.10;99.90
12682;DHT22;6405;59.208;18.216;2022-08-21T06:44:54;17.10;99.90
12682;DHT22;6405;59.208;18.216;2022-08-21T06:47:23;17.00;99.90
12682;DHT22;6405;59.208;18.216;2022-08-21T06:49:51;17.00;99.90
12682;DHT22;6405;59.208;18.216;2022-08-21T06:52:17;17.10;99.90
12682;DHT22;6405;59.208;18.216;2022-08-21T06:54:45;17.10;99.90
12682;DHT22;6405;59.208;18.216;2022-08-21T06:57:11;17.10;99.90
12682;DHT22;6405;59.208;18.216;2022-08-21T06:59:37;17.20;99.90
12682;DHT22;6405;59.208;18.216;2022-08-21T07:02:04;17.20;99.90
12682;DHT22;6405;59.208;18.216;2022-08-21T07:04:29;17.10;99.90
12682;DHT22;6405;59.208;18.216;2022-08-21T07:06:57;17.20;99.90
12682;DHT22;6405;59.208;18.216;2022-08-21T07:09:25;17.20;99.90
12682;DHT22;6405;59.208;18.216;2022-08-21T07:11:54;17.20;99.90
12682;DHT22;6405;59.208;18.216;2022-08-21T07:14:21;17.20;99.90
12682;DHT22;6405;59.208;18.216;2022-08-21T07:16:48;17.10;99.90
12682;DHT22;6405;59.208;18.216;2022-08-21T07:19:16;17.10;99.90
12682;DHT22;6405;59.208;18.216;2022-08-21T07:21:42;17.10;99.90
12682;DHT22;6405;59.208;18.216;2022-08-21T07:24:09;17.10;99.90
12682;DHT22;6405;59.208;18.216;2022-08-21T07:26:35;17.20;99.90
12682;DHT22;6405;59.208;18.216;2022-08-21T07:29:03;17.20;99.90
12682;DHT22;6405;59.208;18.216;2022-08-21T07:31:29;17.30;99.90
12682;DHT22;6405;59.208;18.216;2022-08-21T07:33:57;17.40;99.90
12682;DHT22;6405;59.208;18.216;2022-08-21T07:36:24;17.50;99.90
12682;DHT22;6405;59.208;18.216;2022-08-21T07:38:51;17.50;99.90
12682;DHT22;6405;59.208;18.216;2022-08-21T07:41:21;17.60;99.90
12682;DHT22;6405;59.208;18.216;2022-08-21T07:43:48;17.70;99.90
12682;DHT22;6405;59.208;18.216;2022-08-21T07:46:18;17.90;99.90
12682;DHT22;6405;59.208;18.216;2022-08-21T07:48:45;18.00;99.90
12682;DHT22;6405;59.208;18.216;2022-08-21T07:51:14;18.00;99.90
12682;DHT22;6405;59.208;18.216;2022-08-21T07:53:41;18.00;99.90
12682;DHT22;6405;59.208;18.216;2022-08-21T07:56:07;18.20;99.90
12682;DHT22;6405;59.208;18.216;2022-08-21T07:58:35;18.20;99.90
12682;DHT22;6405;59.208;18.216;2022-08-21T08:01:02;18.20;99.90
12682;DHT22;6405;59.208;18.216;2022-08-21T08:03:28;18.20;99.90
12682;DHT22;6405;59.208;18.216;2022-08-21T08:05:55;18.20;99.90
12682;DHT22;6405;59.208;18.216;2022-08-21T08:08:22;18.10;99.90
12682;DHT22;6405;59.208;18.216;2022-08-21T08:10:49;18.30;99.90
12682;DHT22;6405;59.208;18.216;2022-08-21T08:13:17;18.20;99.90
12682;DHT22;6405;59.208;18.216;2022-08-21T08:15:44;18.30;99.90
12682;DHT22;6405;59.208;18.216;2022-08-21T08:18:10;18.30;99.90
12682;DHT22;6405;59.208;18.216;2022-08-21T08:20:37;18.30;99.90
12682;DHT22;6405;59.208;18.216;2022-08-21T08:23:05;18.30;99.90
12682;DHT22;6405;59.208;18.216;2022-08-21T08:25:31;18.40;99.90
12682;DHT22;6405;59.208;18.216;2022-08-21T08:27:59;18.40;99.90
12682;DHT22;6405;59.208;18.216;2022-08-21T08:30:26;18.50;99.90
12682;DHT22;6405;59.208;18.216;2022-08-21T08:32:53;18.50;99.90
12682;DHT22;6405;59.208;18.216;2022-08-21T08:35:19;18.60;99.90
12682;DHT22;6405;59.208;18.216;2022-08-21T08:37:46;18.80;99.90
12682;DHT22;6405;59.208;18.216;2022-08-21T08:40:38;18.90;99.90
12682;DHT22;6405;59.208;18.216;2022-08-21T08:43:06;19.10;99.90
12682;DHT22;6405;59.208;18.216;2022-08-21T08:45:36;19.10;99.90
12682;DHT22;6405;59.208;18.216;2022-08-21T08:48:08;19.20;99.90
12682;DHT22;6405;59.208;18.216;2022-08-21T08:50:53;19.30;99.90
12682;DHT22;6405;59.208;18.216;2022-08-21T08:53:25;19.40;99.90
12682;DHT22;6405;59.208;18.216;2022-08-21T08:55:56;19.50;99.90
12682;DHT22;6405;59.208;18.216;2022-08-21T08:58:32;19.50;99.90
12682;DHT22;6405;59.208;18.216;2022-08-21T09:00:59;19.60;99.90
12682;DHT22;6405;59.208;18.216;2022-08-21T09:03:27;19.80;99.90
12682;DHT22;6405;59.208;18.216;2022-08-21T09:06:18;20.10;99.90
12682;DHT22;6405;59.208;18.216;2022-08-21T09:28:15;20.50;99.90
12682;DHT22;6405;59.208;18.216;2022-08-21T09:30:42;20.60;99.90
12682;DHT22;6405;59.208;18.216;2022-08-21T09:33:11;20.60;99.90
12682;DHT22;6405;59.208;18.216;2022-08-21T09:35:55;20.60;99.90
12682;DHT22;6405;59.208;18.216;2022-08-21T09:38:28;20.70;99.90
12682;DHT22;6405;59.208;18.216;2022-08-21T09:41:01;20.60;99.90
12682;DHT22;6405;59.208;18.216;2022-08-21T09:43:31;20.70;99.90
12682;DHT22;6405;59.208;18.216;2022-08-21T09:46:25;20.80;99.90
12682;DHT22;6405;59.208;18.216;2022-08-21T09:48:55;20.70;99.90
12682;DHT22;6405;59.208;18.216;2022-08-21T09:51:26;20.70;99.90
12682;DHT22;6405;59.208;18.216;2022-08-21T09:56:36;20.60;99.90
12682;DHT22;6405;59.208;18.216;2022-08-21T09:59:32;20.70;99.90
12682;DHT22;6405;59.208;18.216;2022-08-21T10:02:01;20.60;99.90
12682;DHT22;6405;59.208;18.216;2022-08-21T10:04:34;20.60;99.90
12682;DHT22;6405;59.208;18.216;2022-08-21T10:07:10;20.40;99.90
12682;DHT22;6405;59.208;18.216;2022-08-21T10:09:37;20.40;99.90
12682;DHT22;6405;59.208;18.216;2022-08-21T10:14:58;20.50;99.90
12682;DHT22;6405;59.208;18.216;2022-08-21T10:17:43;20.60;99.90
12682;DHT22;6405;59.208;18.216;2022-08-21T10:20:17;20.50;99.90
12682;DHT22;6405;59.208;18.216;2022-08-21T10:23:03;20.60;99.90
12682;DHT22;6405;59.208;18.216;2022-08-21T10:28:52;20.60;99.90
12682;DHT22;6405;59.208;18.216;2022-08-21T10:36:58;20.70;99.90
12682;DHT22;6405;59.208;18.216;2022-08-21T10:39:34;20.70;99.90
12682;DHT22;6405;59.208;18.216;2022-08-21T10:45:31;20.50;99.90
12682;DHT22;6405;59.208;18.216;2022-08-21T10:48:04;20.60;99.90
12682;DHT22;6405;59.208;18.216;2022-08-21T10:50:46;20.80;99.90
12682;DHT22;6405;59.208;18.216;2022-08-21T10:58:29;21.00;99.90
12682;DHT22;6405;59.208;18.216;2022-08-21T11:01:15;21.20;99.90
12682;DHT22;6405;59.208;18.216;2022-08-21T11:03:54;21.20;99.90
12682;DHT22;6405;59.208;18.216;2022-08-21T11:06:26;21.10;99.90
12682;DHT22;6405;59.208;18.216;2022-08-21T11:09:13;21.10;99.90
12682;DHT22;6405;59.208;18.216;2022-08-21T11:11:46;21.10;99.90
12682;DHT22;6405;59.208;18.216;2022-08-21T11:14:21;21.20;99.90
12682;DHT22;6405;59.208;18.216;2022-08-21T11:17:01;21.30;99.90
12682;DHT22;6405;59.208;18.216;2022-08-21T11:19:50;21.30;99.90
12682;DHT22;6405;59.208;18.216;2022-08-21T11:22:33;21.40;99.90
12682;DHT22;6405;59.208;18.216;2022-08-21T11:25:20;21.60;99.90
12682;DHT22;6405;59.208;18.216;2022-08-21T11:28:00;21.60;99.90
12682;DHT22;6405;59.208;18.216;2022-08-21T11:30:39;21.80;99.90
12682;DHT22;6405;59.208;18.216;2022-08-21T11:36:15;22.00;99.90
12682;DHT22;6405;59.208;18.216;2022-08-21T11:41:37;22.00;99.90
12682;DHT22;6405;59.208;18.216;2022-08-21T11:52:59;22.00;99.90
12682;DHT22;6405;59.208;18.216;2022-08-21T11:58:10;22.00;99.90
12682;DHT22;6405;59.208;18.216;2022-08-21T12:00:50;21.90;99.90
12682;DHT22;6405;59.208;18.216;2022-08-21T12:03:34;22.00;99.90
12682;DHT22;6405;59.208;18.216;2022-08-21T12:06:05;22.00;99.90
12682;DHT22;6405;59.208;18.216;2022-08-21T12:08:43;21.90;99.90
12682;DHT22;6405;59.208;18.216;2022-08-21T12:19:11;22.20;99.90
12682;DHT22;6405;59.208;18.216;2022-08-21T12:22:06;22.10;99.90
12682;DHT22;6405;59.208;18.216;2022-08-21T12:24:48;21.90;99.90
12682;DHT22;6405;59.208;18.216;2022-08-21T12:27:28;22.00;99.90
12682;DHT22;6405;59.208;18.216;2022-08-21T12:30:00;22.00;99.90
12682;DHT22;6405;59.208;18.216;2022-08-21T12:32:44;22.10;99.90
12682;DHT22;6405;59.208;18.216;2022-08-21T12:37:44;22.30;99.90
12682;DHT22;6405;59.208;18.216;2022-08-21T12:40:27;22.20;99.90
12682;DHT22;6405;59.208;18.216;2022-08-21T12:42:59;22.20;99.90
12682;DHT22;6405;59.208;18.216;2022-08-21T12:45:32;22.10;99.90
12682;DHT22;6405;59.208;18.216;2022-08-21T12:48:06;22.00;99.90
12682;DHT22;6405;59.208;18.216;2022-08-21T12:50:46;22.00;99.90
12682;DHT22;6405;59.208;18.216;2022-08-21T12:53:41;22.10;99.90
12682;DHT22;6405;59.208;18.216;2022-08-21T12:56:12;21.90;99.90
12682;DHT22;6405;59.208;18.216;2022-08-21T12:59:06;22.00;99.90
12682;DHT22;6405;59.208;18.216;2022-08-21T13:01:49;22.00;99.90
12682;DHT22;6405;59.208;18.216;2022-08-21T13:04:21;22.30;99.90
12682;DHT22;6405;59.208;18.216;2022-08-21T13:06:53;22.30;99.90
12682;DHT22;6405;59.208;18.216;2022-08-21T13:09:27;22.40;99.90
12682;DHT22;6405;59.208;18.216;2022-08-21T13:11:56;22.40;99.90
12682;DHT22;6405;59.208;18.216;2022-08-21T13:14:31;22.40;99.90
12682;DHT22;6405;59.208;18.216;2022-08-21T13:17:00;22.40;99.90
12682;DHT22;6405;59.208;18.216;2022-08-21T13:19:28;22.50;99.90
12682;DHT22;6405;59.208;18.216;2022-08-21T13:21:56;22.60;99.90
12682;DHT22;6405;59.208;18.216;2022-08-21T13:24:26;22.80;99.90
12682;DHT22;6405;59.208;18.216;2022-08-21T13:26:53;22.80;99.90
12682;DHT22;6405;59.208;18.216;2022-08-21T13:29:22;22.70;99.90
12682;DHT22;6405;59.208;18.216;2022-08-21T13:31:55;22.60;99.90
12682;DHT22;6405;59.208;18.216;2022-08-21T13:34:24;22.50;99.90
12682;DHT22;6405;59.208;18.216;2022-08-21T13:36:57;22.60;99.90
12682;DHT22;6405;59.208;18.216;2022-08-21T13:39:26;22.50;99.90
12682;DHT22;6405;59.208;18.216;2022-08-21T13:41:57;22.40;99.90
12682;DHT22;6405;59.208;18.216;2022-08-21T13:47:01;22.60;99.90
12682;DHT22;6405;59.208;18.216;2022-08-21T13:49:38;22.60;99.90
12682;DHT22;6405;59.208;18.216;2022-08-21T13:52:14;22.50;99.90
12682;DHT22;6405;59.208;18.216;2022-08-21T13:54:43;22.40;99.90
12682;DHT22;6405;59.208;18.216;2022-08-21T13:57:19;22.50;99.90
12682;DHT22;6405;59.208;18.216;2022-08-21T13:59:50;22.30;99.90
12682;DHT22;6405;59.208;18.216;2022-08-21T14:02:20;22.20;99.90
12682;DHT22;6405;59.208;18.216;2022-08-21T14:07:24;22.40;99.90
12682;DHT22;6405;59.208;18.216;2022-08-21T14:09:51;22.40;99.90
12682;DHT22;6405;59.208;18.216;2022-08-21T14:12:25;22.40;99.90
12682;DHT22;6405;59.208;18.216;2022-08-21T14:14:53;22.40;99.90
12682;DHT22;6405;59.208;18.216;2022-08-21T14:17:32;22.40;99.90
12682;DHT22;6405;59.208;18.216;2022-08-21T14:19:58;22.30;99.90
12682;DHT22;6405;59.208;18.216;2022-08-21T14:22:44;22.30;99.90
12682;DHT22;6405;59.208;18.216;2022-08-21T14:25:29;22.40;99.90
12682;DHT22;6405;59.208;18.216;2022-08-21T14:27:59;22.50;99.90
12682;DHT22;6405;59.208;18.216;2022-08-21T14:30:32;22.70;99.90
12682;DHT22;6405;59.208;18.216;2022-08-21T14:33:00;22.90;99.90
12682;DHT22;6405;59.208;18.216;2022-08-21T14:35:26;22.90;99.90
12682;DHT22;6405;59.208;18.216;2022-08-21T14:37:52;22.90;99.90
12682;DHT22;6405;59.208;18.216;2022-08-21T14:40:22;22.90;99.90
12682;DHT22;6405;59.208;18.216;2022-08-21T14:42:49;22.90;99.90
12682;DHT22;6405;59.208;18.216;2022-08-21T14:47:42;22.80;99.90
12682;DHT22;6405;59.208;18.216;2022-08-21T14:50:13;22.70;99.90
12682;DHT22;6405;59.208;18.216;2022-08-21T14:52:40;22.60;99.90
12682;DHT22;6405;59.208;18.216;2022-08-21T14:55:09;22.70;99.90
12682;DHT22;6405;59.208;18.216;2022-08-21T14:57:43;22.60;99.90
12682;DHT22;6405;59.208;18.216;2022-08-21T15:00:16;22.50;99.90
12682;DHT22;6405;59.208;18.216;2022-08-21T15:02:43;22.40;99.90
12682;DHT22;6405;59.208;18.216;2022-08-21T15:05:10;22.50;99.90
12682;DHT22;6405;59.208;18.216;2022-08-21T15:07:37;22.40;99.90
12682;DHT22;6405;59.208;18.216;2022-08-21T15:10:06;22.30;99.90
12682;DHT22;6405;59.208;18.216;2022-08-21T15:12:34;22.40;99.90
12682;DHT22;6405;59.208;18.216;2022-08-21T15:15:01;22.40;99.90
12682;DHT22;6405;59.208;18.216;2022-08-21T15:17:27;22.50;99.90
12682;DHT22;6405;59.208;18.216;2022-08-21T15:19:55;22.50;99.90
12682;DHT22;6405;59.208;18.216;2022-08-21T15:22:21;22.40;99.90
12682;DHT22;6405;59.208;18.216;2022-08-21T15:24:48;22.40;99.90
12682;DHT22;6405;59.208;18.216;2022-08-21T15:27:16;22.30;99.90
12682;DHT22;6405;59.208;18.216;2022-08-21T15:29:44;22.30;99.90
12682;DHT22;6405;59.208;18.216;2022-08-21T15:32:19;22.20;99.90
12682;DHT22;6405;59.208;18.216;2022-08-21T15:34:47;22.10;99.90
12682;DHT22;6405;59.208;18.216;2022-08-21T15:37:14;22.00;99.90
12682;DHT22;6405;59.208;18.216;2022-08-21T15:39:40;22.00;99.90
12682;DHT22;6405;59.208;18.216;2022-08-21T15:42:06;21.90;99.90
12682;DHT22;6405;59.208;18.216;2022-08-21T15:44:33;21.80;99.90
12682;DHT22;6405;59.208;18.216;2022-08-21T15:47:00;21.80;99.90
12682;DHT22;6405;59.208;18.216;2022-08-21T15:49:27;21.70;99.90
12682;DHT22;6405;59.208;18.216;2022-08-21T15:51:55;21.70;99.90
12682;DHT22;6405;59.208;18.216;2022-08-21T15:54:21;21.60;99.90
12682;DHT22;6405;59.208;18.216;2022-08-21T15:56:50;21.60;99.90
12682;DHT22;6405;59.208;18.216;2022-08-21T15:59:19;21.60;99.90
12682;DHT22;6405;59.208;18.216;2022-08-21T16:01:48;21.50;99.90
12682;DHT22;6405;59.208;18.216;2022-08-21T16:04:22;21.50;99.90
12682;DHT22;6405;59.208;18.216;2022-08-21T16:06:49;21.50;99.90
12682;DHT22;6405;59.208;18.216;2022-08-21T16:09:15;21.30;99.90
12682;DHT22;6405;59.208;18.216;2022-08-21T16:11:42;21.20;99.90
12682;DHT22;6405;59.208;18.216;2022-08-21T16:14:12;21.10;99.90
12682;DHT22;6405;59.208;18.216;2022-08-21T16:16:40;21.00;99.90
12682;DHT22;6405;59.208;18.216;2022-08-21T16:19:07;20.90;99.90
12682;DHT22;6405;59.208;18.216;2022-08-21T16:21:35;20.80;99.90
12682;DHT22;6405;59.208;18.216;2022-08-21T16:24:02;20.70;99.90
12682;DHT22;6405;59.208;18.216;2022-08-21T16:26:29;20.70;99.90
12682;DHT22;6405;59.208;18.216;2022-08-21T16:28:57;20.60;99.90
12682;DHT22;6405;59.208;18.216;2022-08-21T16:31:25;20.70;99.90
12682;DHT22;6405;59.208;18.216;2022-08-21T16:33:55;20.70;99.90
12682;DHT22;6405;59.208;18.216;2022-08-21T16:36:22;20.70;99.90
12682;DHT22;6405;59.208;18.216;2022-08-21T16:38:51;20.70;99.90
12682;DHT22;6405;59.208;18.216;2022-08-21T16:41:20;20.70;99.90
12682;DHT22;6405;59.208;18.216;2022-08-21T16:43:49;20.70;99.90
12682;DHT22;6405;59.208;18.216;2022-08-21T16:46:18;20.60;99.90
12682;DHT22;6405;59.208;18.216;2022-08-21T16:48:45;20.50;99.90
12682;DHT22;6405;59.208;18.216;2022-08-21T16:51:14;20.40;99.90
12682;DHT22;6405;59.208;18.216;2022-08-21T16:53:40;20.30;99.90
12682;DHT22;6405;59.208;18.216;2022-08-21T16:56:09;20.30;99.90
12682;DHT22;6405;59.208;18.216;2022-08-21T16:58:40;20.20;99.90
12682;DHT22;6405;59.208;18.216;2022-08-21T17:01:10;20.20;99.90
12682;DHT22;6405;59.208;18.216;2022-08-21T17:03:39;20.10;99.90
12682;DHT22;6405;59.208;18.216;2022-08-21T17:06:09;20.10;99.90